Latest Weather Observations for Carters Bore

IDQ60801

Issued at 8:32 pm EST Friday 26 February 2021 (issued every 10 minutes, with the page automatically refreshed every 10 minutes)

About weather observations | Map of weather stations | Latest weather observations for QLD | Other Formats
Station Details ID: 037053 Name: CARTERS BORE Lat: -20.94 Lon: 139.30 Height: 396.0 m
Data from the previous 72 hours. | See also: Recent months at Carters Bore
Date/Time
EST
Temp
°C
App
Temp
°C
Dew
Point
°C
Rel
Hum
%
Delta-T
°C
Wind Press
QNH
hPa
Press
MSL
hPa
Rain since
9am
mm
Dir  Spd
km/h
Gust
km/h
Spd
kts
Gust
kts
26/08:00pm 32.5 28.7 -0.5 12 16.2 SSW 9 11 5 6 - - 0.0
26/07:30pm 33.6 29.4 -0.9 11 16.9 SSW 11 17 6 9 - - 0.0
26/07:00pm 34.1 29.6 -0.5 11 17.2 SSW 13 17 7 9 - - 0.0
26/06:30pm 35.1 30.1 -1.1 10 17.9 SW 15 22 8 12 - - 0.0
26/06:00pm 35.5 30.9 -0.8 10 18.1 SW 13 24 7 13 - - 0.0
26/05:30pm 35.6 31.4 -0.7 10 18.1 WSW 11 24 6 13 - - 0.0
26/05:00pm 35.8 30.5 -0.5 10 18.2 SSW 17 28 9 15 - - 0.0
26/04:30pm 36.0 32.2 -0.4 10 18.3 WSW 9 20 5 11 - - 0.0
26/04:00pm 36.2 30.6 -0.2 10 18.4 S 19 30 10 16 - - 0.0
26/03:30pm 35.7 31.9 -0.6 10 18.1 SW 9 19 5 10 - - 0.0
26/03:00pm 35.5 32.3 0.6 11 17.8 NNE 7 20 4 11 - - 0.0
26/02:30pm 34.9 31.4 1.3 12 17.2 NE 9 17 5 9 - - 0.0
26/02:00pm 35.8 32.2 0.8 11 17.9 SE 9 22 5 12 - - 0.0
26/01:30pm 34.7 30.4 1.1 12 17.2 ESE 13 28 7 15 - - 0.0
26/01:00pm 34.6 29.9 1.1 12 17.1 S 15 24 8 13 - - 0.0
26/12:30pm 33.7 30.2 1.5 13 16.4 SE 9 20 5 11 - - 0.0
26/12:00pm 33.0 27.9 0.9 13 16.2 S 17 26 9 14 - - 0.0
26/11:30am 32.7 27.8 -0.4 12 16.3 SE 15 22 8 12 - - 0.0
26/11:00am 32.2 26.5 -0.8 12 16.1 SSE 19 26 10 14 - - 0.0
26/10:30am 31.0 25.2 -1.7 12 15.6 SSE 19 28 10 15 - - 0.0
26/10:00am 29.4 23.3 -4.1 11 15.1 SSE 19 28 10 15 - - 0.0
26/09:30am 27.5 21.7 -4.4 12 14.1 SSE 17 28 9 15 - - 0.0
26/09:00am 24.9 20.7 -3.5 15 12.5 S 9 17 5 9 - - 0.0
26/08:30am 23.6 19.8 -3.7 16 11.8 S 7 11 4 6 - - 0.0
26/08:00am 23.3 19.4 -4.8 15 11.9 S 7 11 4 6 - - 0.0
26/07:30am 23.6 18.5 -5.4 14 12.2 SSE 13 20 7 11 - - 0.0
26/07:00am 23.2 18.0 -5.7 14 12.0 SSE 13 19 7 10 - - 0.0
26/06:30am 23.1 18.7 -5.8 14 12.0 SSE 9 15 5 8 - - 0.0
26/06:00am 23.4 18.6 -5.6 14 12.1 SSE 11 17 6 9 - - 0.0
26/05:30am 23.9 18.3 -6.2 13 12.5 SE 15 24 8 13 - - 0.0
26/05:00am 24.1 18.9 -6.0 13 12.5 SSE 13 20 7 11 - - 0.0
26/04:30am 24.3 19.1 -5.8 13 12.6 SSE 13 19 7 10 - - 0.0
26/04:00am 24.3 19.5 -5.8 13 12.6 SSE 11 17 6 9 - - 0.0
26/03:30am 23.5 19.2 -4.6 15 11.9 S 9 13 5 7 - - 0.0
26/03:00am 23.8 19.9 -4.4 15 12.1 SSE 7 11 4 6 - - 0.0
26/02:30am 23.8 19.9 -4.4 15 12.1 SSE 7 9 4 5 - - 0.0
26/02:00am 24.9 20.6 -4.4 14 12.7 S 9 15 5 8 - - 0.0
26/01:30am 25.8 20.8 -4.7 13 13.2 S 13 17 7 9 - - 0.0
26/01:00am 25.8 21.6 -3.7 14 13.0 S 9 13 5 7 - - 0.0
26/12:30am 25.9 21.7 -3.6 14 13.1 S 9 13 5 7 - - 0.0
26/12:00am 26.6 22.4 -4.0 13 13.5 S 9 11 5 6 - - 0.0
 
Date/Time
EST
Temp
°C
App
Temp
°C
Dew
Point
°C
Rel
Hum
%
Delta-T
°C
Wind Press
QNH
hPa
Press
MSL
hPa
Rain since
9am
mm
Dir  Spd
km/h
Gust
km/h
Spd
kts
Gust
kts
25/11:30pm 27.0 22.8 -3.7 13 13.7 S 9 15 5 8 - - 0.0
25/11:00pm 27.5 23.5 -2.3 14 13.7 S 9 13 5 7 - - 0.0
25/10:30pm 28.3 24.9 -0.8 15 13.8 S 7 11 4 6 - - 0.0
25/10:00pm 28.8 25.4 -0.4 15 14.0 SSW 7 11 4 6 - - 0.0
25/09:30pm 28.4 25.2 -0.7 15 13.8 SSE 6 7 3 4 - - 0.0
25/09:00pm 30.0 26.1 -1.4 13 14.9 S 9 13 5 7 - - 0.0
25/08:30pm 31.0 27.1 -1.7 12 15.6 S 9 13 5 7 - - 0.0
25/08:00pm 31.3 27.8 -1.5 12 15.7 S 7 9 4 5 - - 0.0
25/07:30pm 32.5 28.2 -1.7 11 16.4 S 11 15 6 8 - - 0.0
25/07:00pm 32.8 28.1 -1.5 11 16.6 S 13 17 7 9 - - 0.0
25/06:30pm 33.5 28.4 -2.3 10 17.2 SSW 15 24 8 13 - - 0.0
25/06:00pm 33.7 28.2 -2.1 10 17.2 SSW 17 22 9 12 - - 0.0
25/05:30pm 34.5 29.8 -1.5 10 17.6 SSW 13 19 7 10 - - 0.0
25/05:00pm 34.5 31.5 -1.5 10 17.6 SSE 4 7 2 4 - - 0.0
25/04:30pm 35.1 30.9 -1.1 10 17.9 WSW 11 17 6 9 - - 0.0
25/04:00pm 35.7 31.9 -0.6 10 18.1 SW 9 20 5 11 - - 0.0
25/03:30pm 35.6 30.7 -0.7 10 18.1 S 15 20 8 11 - - 0.0
25/03:00pm 35.0 30.8 -1.1 10 17.8 SW 11 24 6 13 - - 0.0
25/02:30pm 35.1 30.5 -1.1 10 17.9 SSW 13 22 7 12 - - 0.0
25/02:00pm 34.7 31.4 -1.4 10 17.7 SSE 6 24 3 13 - - 0.0
25/01:30pm 34.2 29.7 -0.4 11 17.2 SSW 13 28 7 15 - - 0.0
25/01:00pm 33.8 29.6 -0.7 11 17.0 SSW 11 24 6 13 - - 0.0
25/12:30pm 34.0 28.7 -0.6 11 17.1 SSW 17 30 9 16 - - 0.0
25/12:00pm 32.9 28.3 -1.4 11 16.6 S 13 24 7 13 - - 0.0
25/11:30am 32.6 28.2 0.6 13 16.0 S 13 24 7 13 - - 0.0
25/11:00am 31.9 27.5 0.1 13 15.7 SSE 13 22 7 12 - - 0.0
25/10:30am 31.4 26.3 0.7 14 15.3 SSE 17 26 9 14 - - 0.0
25/10:00am 30.6 25.9 1.0 15 14.7 SSE 15 22 8 12 - - 0.0
25/09:30am 28.7 23.8 -0.5 15 14.0 SSE 15 24 8 13 - - 0.0
25/09:00am 27.5 22.5 -1.4 15 13.5 SSE 15 20 8 11 - - 0.0
25/08:30am 25.9 20.6 -3.6 14 13.1 SSE 15 24 8 13 - - 0.0
25/08:00am 24.6 20.4 -3.7 15 12.4 SSE 9 15 5 8 - - 0.0
25/07:30am 22.6 19.1 -2.9 18 11.1 SSE 6 9 3 5 - - 0.0
25/07:00am 21.1 17.9 -3.4 19 10.4 S 4 6 2 3 - - 0.0
25/06:30am 21.2 17.6 -4.0 18 10.6 S 6 7 3 4 - - 0.0
25/06:00am 22.4 18.1 -4.6 16 11.4 SSE 9 13 5 7 - - 0.0
25/05:30am 21.7 18.1 -3.6 18 10.8 S 6 7 3 4 - - 0.0
25/05:00am 22.6 18.9 -4.5 16 11.5 SSE 6 7 3 4 - - 0.0
25/04:30am 24.0 19.8 -4.2 15 12.1 SSE 9 13 5 7 - - 0.0
25/04:00am 23.0 19.3 -2.6 18 11.3 S 7 9 4 5 - - 0.0
25/03:30am 23.2 19.6 -2.4 18 11.3 S 7 9 4 5 - - 0.0
25/03:00am 24.4 20.4 -2.2 17 11.9 S 9 13 5 7 - - 0.0
25/02:30am 25.1 20.7 -2.5 16 12.4 S 11 17 6 9 - - 0.0
25/02:00am 25.4 21.1 -1.4 17 12.3 S 11 17 6 9 - - 0.0
25/01:30am 25.8 22.0 -1.1 17 12.4 S 9 15 5 8 - - 0.0
25/01:00am 26.4 22.5 -1.4 16 12.9 S 9 13 5 7 - - 0.0
25/12:30am 27.3 22.6 -1.6 15 13.4 S 13 17 7 9 - - 0.0
25/12:00am 28.0 23.3 -2.0 14 13.9 S 13 19 7 10 - - 0.0
 
Date/Time
EST
Temp
°C
App
Temp
°C
Dew
Point
°C
Rel
Hum
%
Delta-T
°C
Wind Press
QNH
hPa
Press
MSL
hPa
Rain since
9am
mm
Dir  Spd
km/h
Gust
km/h
Spd
kts
Gust
kts
24/11:30pm 28.6 23.9 -1.5 14 14.1 S 13 20 7 11 - - 0.0
24/11:00pm 29.2 24.2 -1.0 14 14.4 S 15 24 8 13 - - 0.0
24/10:30pm 29.7 25.2 -0.6 14 14.6 S 13 19 7 10 - - 0.0
24/10:00pm 30.0 25.6 0.6 15 14.5 SSW 13 19 7 10 - - 0.0
24/09:30pm 30.3 26.3 0.8 15 14.6 SSW 11 15 6 8 - - 0.0
24/09:00pm 31.3 26.6 0.6 14 15.2 SSW 15 19 8 10 - - 0.0
24/08:30pm 31.8 27.3 0.0 13 15.7 SSW 13 17 7 9 - - 0.0
24/08:00pm 32.6 28.6 0.6 13 16.0 SSW 11 15 6 8 - - 0.0
24/07:30pm 33.5 28.7 0.2 12 16.6 SSW 15 22 8 12 - - 0.0
24/07:00pm 34.4 28.8 -0.3 11 17.3 SSW 19 26 10 14 - - 0.0
24/06:30pm 35.3 30.5 0.4 11 17.7 SSW 15 22 8 12 - - 0.0
24/06:00pm 35.7 31.0 0.7 11 17.9 SSW 15 20 8 11 - - 0.0
24/05:30pm 35.8 31.3 2.0 12 17.6 SSW 15 28 8 15 - - 0.0
24/05:00pm 36.7 32.7 2.7 12 18.0 SW 13 26 7 14 - - 0.0
24/04:30pm 36.5 32.3 3.7 13 17.6 SW 15 28 8 15 - - 0.0
24/04:00pm 37.0 32.5 4.0 13 17.9 S 17 28 9 15 - - 0.0
24/03:30pm 36.1 31.6 4.4 14 17.2 SSW 17 30 9 16 - - 0.0
24/03:00pm 36.7 33.8 4.9 14 17.4 S 9 24 5 13 - - 0.0
24/02:30pm 36.0 32.8 5.3 15 16.9 SSE 11 20 6 11 - - 0.0
24/02:00pm 35.4 32.7 5.8 16 16.3 ESE 9 19 5 10 - - 0.0
24/01:30pm 35.4 32.4 5.8 16 16.3 S 11 24 6 13 - - 0.0
24/01:00pm 34.0 29.8 5.5 17 15.6 S 17 26 9 14 - - 0.0
24/12:30pm 33.6 29.7 5.2 17 15.4 SE 15 22 8 12 - - 0.0
24/12:00pm 33.4 29.4 5.0 17 15.3 SSE 15 24 8 13 - - 0.0
24/11:30am 32.6 28.1 4.4 17 15.0 S 17 28 9 15 - - 0.0
24/11:00am 31.6 26.8 4.4 18 14.4 SSE 19 26 10 14 - - 0.0
24/10:30am 30.3 25.8 4.1 19 13.7 SSE 17 24 9 13 - - 0.0
24/10:00am 30.0 25.1 3.9 19 13.6 SE 19 35 10 19 - - 0.0
24/09:30am 28.6 23.4 2.7 19 13.1 SSE 19 26 10 14 - - 0.0
24/09:00am 26.9 22.4 2.1 20 12.3 SSE 15 24 8 13 - - 0.0
24/08:30am 26.5 20.6 1.7 20 12.1 SSE 22 32 12 17 - - 0.0
24/08:00am 26.0 20.4 1.3 20 12.0 SSE 20 32 11 17 - - 0.0
24/07:30am 25.3 20.7 1.4 21 11.5 SSE 15 24 8 13 - - 0.0
24/07:00am 24.7 20.5 1.6 22 11.1 SSE 13 20 7 11 - - 0.0
24/06:30am 25.1 20.5 1.3 21 11.5 SSE 15 19 8 10 - - 0.0
24/06:00am 25.7 20.7 1.1 20 11.8 SSE 17 22 9 12 - - 0.0
24/05:30am 26.3 21.7 1.6 20 12.0 SSE 15 22 8 12 - - 0.0
24/05:00am 26.5 21.9 1.7 20 12.1 SSE 15 24 8 13 - - 0.0
24/04:30am 26.9 21.6 2.1 20 12.3 SSE 19 28 10 15 - - 0.0
24/04:00am 27.3 21.8 1.7 19 12.6 SSE 20 30 11 16 - - 0.0
24/03:30am 27.6 22.7 1.9 19 12.7 SSE 17 26 9 14 - - 0.0
24/03:00am 28.1 23.6 2.3 19 12.9 SSE 15 22 8 12 - - 0.0
24/02:30am 28.8 23.3 2.1 18 13.4 SSE 20 33 11 18 - - 0.0
24/02:00am 29.4 24.5 1.8 17 13.8 SSE 17 28 9 15 - - 0.0
24/01:30am 30.0 24.8 2.3 17 14.0 SSE 19 28 10 15 - - 0.0
24/01:00am 30.6 24.4 1.9 16 14.5 SSE 24 37 13 20 - - 0.0
24/12:30am 31.3 24.8 2.5 16 14.7 SSE 26 39 14 21 - - 0.0
24/12:23am 31.3 25.2 2.5 16 14.7 SSE 24 37 13 20 - - 0.0
24/12:00am 31.1 27.7 4.0 18 14.2 SSE 11 19 6 10 - - 0.0
 
Date/Time
EST
Temp
°C
App
Temp
°C
Dew
Point
°C
Rel
Hum
%
Delta-T
°C
Wind Press
QNH
hPa
Press
MSL
hPa
Rain since
9am
mm
Dir  Spd
km/h
Gust
km/h
Spd
kts
Gust
kts
23/11:30pm 31.8 27.4 4.6 18 14.5 SSE 17 28 9 15 - - 0.0
23/11:00pm 32.5 27.2 5.1 18 14.7 S 22 35 12 19 - - 0.0
23/10:30pm 32.9 28.8 6.2 19 14.6 S 17 24 9 13 - - 0.0
23/10:00pm 33.6 29.8 7.6 20 14.6 S 17 26 9 14 - - 0.0
23/09:30pm 34.1 30.4 8.0 20 14.8 S 17 24 9 13 - - 0.0
23/09:00pm 34.8 31.2 8.5 20 15.1 S 17 26 9 14 - - 0.0

Other formats

Comma delimited format used in spreadsheet applications
http://www.bom.gov.au/fwo/IDQ60801/IDQ60801.94347.axf

JavaScript Object Notation format (JSON) in row-major order
http://www.bom.gov.au/fwo/IDQ60801/IDQ60801.94347.json

Data quality

Most of these data are generated automatically and are frequently updated. Quality checks on data are not normally performed. It is possible for incorrect values to appear. Refer to information at About Latest Weather Observations and please check the disclaimer before using these data.